Time;durP1;ratioP1;P1;durP2;ratioP2;P2;SDS_P1;SDS_P2;PMS_P1;PMS_P2;Temp;Humidity;BMP_temperature;BMP_pressure;BME280_temperature;BME280_humidity;BME280_pressure;Samples;Min_cycle;Max_cycle;Signal;HPM_P1;HPM_P2
2023/08/31 00:01:24;;;;;;;5.85;2.45;;;10.90;99.90;;;;;;7352839;32;20164;-57
2023/08/31 00:05:28;;;;;;;4.93;2.37;;;11.00;99.90;;;;;;7342437;32;20141;-57
2023/08/31 00:09:30;;;;;;;5.78;2.72;;;10.90;99.90;;;;;;7349307;32;20083;-56
2023/08/31 00:13:32;;;;;;;6.18;2.45;;;10.90;99.90;;;;;;7347349;32;20091;-56
2023/08/31 00:17:35;;;;;;;13.07;2.75;;;11.00;99.90;;;;;;7347427;32;20111;-55
2023/08/31 00:21:36;;;;;;;7.12;2.45;;;11.00;99.90;;;;;;7344613;32;20214;-57
2023/08/31 00:25:38;;;;;;;8.05;2.80;;;11.00;99.90;;;;;;7351696;32;20217;-56
2023/08/31 00:29:40;;;;;;;4.68;2.42;;;10.90;99.90;;;;;;7342720;32;20108;-57
2023/08/31 00:33:43;;;;;;;5.65;2.80;;;10.90;99.90;;;;;;7345939;32;20566;-56
2023/08/31 00:37:45;;;;;;;6.45;2.67;;;11.00;99.90;;;;;;7340449;32;20214;-56
2023/08/31 00:41:47;;;;;;;4.85;2.90;;;11.00;99.90;;;;;;7346682;32;20482;-56
2023/08/31 00:45:51;;;;;;;6.75;2.37;;;11.00;99.90;;;;;;7347268;32;20107;-57
2023/08/31 00:49:53;;;;;;;8.15;2.60;;;11.10;99.90;;;;;;7347894;32;20115;-57
2023/08/31 00:53:55;;;;;;;10.00;3.33;;;11.10;99.90;;;;;;7351121;32;20236;-58
2023/08/31 00:57:58;;;;;;;7.68;3.28;;;11.10;99.90;;;;;;7342406;32;20099;-56
2023/08/31 01:02:14;;;;;;;9.15;3.47;;;11.10;99.90;;;;;;7349268;32;20099;-56
2023/08/31 01:06:36;;;;;;;7.65;3.15;;;11.10;99.90;;;;;;7346760;32;20553;-56
2023/08/31 01:10:48;;;;;;;9.38;3.60;;;11.10;99.90;;;;;;7340816;32;20225;-57
2023/08/31 01:14:58;;;;;;;7.03;3.28;;;11.20;99.90;;;;;;7343855;32;20210;-55
2023/08/31 01:19:04;;;;;;;5.60;3.10;;;11.20;99.90;;;;;;7347463;32;20728;-56
2023/08/31 01:23:18;;;;;;;10.13;3.50;;;11.20;99.90;;;;;;7342479;32;20272;-56
2023/08/31 01:27:20;;;;;;;8.73;3.83;;;11.30;99.90;;;;;;7341134;32;20197;-56
2023/08/31 01:31:22;;;;;;;6.60;3.80;;;11.30;99.90;;;;;;7355491;32;20751;-57
2023/08/31 01:35:25;;;;;;;7.20;4.12;;;11.20;99.90;;;;;;7347321;32;20111;-57
2023/08/31 01:39:38;;;;;;;9.38;3.62;;;11.20;99.90;;;;;;7353474;32;20099;-56
2023/08/31 01:43:41;;;;;;;8.05;3.50;;;11.20;99.90;;;;;;7352519;32;20121;-55
2023/08/31 01:47:43;;;;;;;5.53;3.28;;;11.10;99.90;;;;;;7349746;32;20201;-57
2023/08/31 01:51:45;;;;;;;5.35;3.53;;;11.00;99.90;;;;;;7352810;32;20178;-57
2023/08/31 01:55:46;;;;;;;4.93;3.50;;;11.00;99.90;;;;;;7353031;32;20237;-56
2023/08/31 01:59:48;;;;;;;7.75;3.65;;;11.00;99.90;;;;;;7353249;32;20130;-57
2023/08/31 02:03:50;;;;;;;4.53;3.67;;;10.90;99.90;;;;;;7350884;32;20103;-55
2023/08/31 02:07:52;;;;;;;5.78;3.17;;;11.00;99.90;;;;;;7349186;32;20122;-56
2023/08/31 02:11:54;;;;;;;6.15;3.67;;;11.00;99.90;;;;;;7356148;32;20195;-55
2023/08/31 02:15:55;;;;;;;8.35;3.45;;;11.00;99.90;;;;;;7355740;32;20115;-57
2023/08/31 02:19:57;;;;;;;6.43;3.20;;;11.10;99.90;;;;;;7356310;32;20167;-57
2023/08/31 02:23:59;;;;;;;5.05;3.70;;;11.00;99.90;;;;;;7356425;32;20111;-57
2023/08/31 02:28:01;;;;;;;6.22;3.42;;;11.10;99.90;;;;;;7352334;32;20175;-56
2023/08/31 02:32:06;;;;;;;6.85;3.20;;;11.10;99.90;;;;;;7354929;32;20267;-56
2023/08/31 02:36:14;;;;;;;8.07;3.37;;;11.00;99.90;;;;;;7348000;32;20223;-57
2023/08/31 02:40:16;;;;;;;4.25;3.15;;;11.00;99.90;;;;;;7345605;32;20144;-55
2023/08/31 02:44:17;;;;;;;6.22;3.40;;;11.00;99.90;;;;;;7351190;32;20108;-55
2023/08/31 02:48:21;;;;;;;3.90;2.70;;;10.90;99.90;;;;;;7347000;32;20166;-54
2023/08/31 02:52:23;;;;;;;6.90;3.08;;;10.90;99.90;;;;;;7345630;32;20200;-57
2023/08/31 02:56:24;;;;;;;5.15;2.70;;;10.80;99.90;;;;;;7353872;32;20099;-57
2023/08/31 03:00:26;;;;;;;5.03;3.00;;;10.80;99.90;;;;;;7351723;32;20694;-57
2023/08/31 03:04:28;;;;;;;7.78;3.12;;;10.70;99.90;;;;;;7355232;32;20088;-56
2023/08/31 03:08:30;;;;;;;7.10;3.12;;;10.60;99.90;;;;;;7342595;32;20098;-57
2023/08/31 03:12:32;;;;;;;7.40;3.20;;;10.70;99.90;;;;;;7346553;32;20181;-56
2023/08/31 03:16:33;;;;;;;6.20;3.20;;;10.60;99.90;;;;;;7352473;32;20202;-56
2023/08/31 03:20:35;;;;;;;6.50;3.55;;;10.70;99.90;;;;;;7349339;32;20968;-56
2023/08/31 03:24:37;;;;;;;6.05;3.37;;;10.80;99.90;;;;;;7353031;32;20502;-55
2023/08/31 03:28:40;;;;;;;5.75;3.45;;;10.80;99.90;;;;;;7350271;32;20183;-57
2023/08/31 03:32:42;;;;;;;4.95;3.20;;;11.00;99.90;;;;;;7341531;32;20143;-58
2023/08/31 03:36:44;;;;;;;5.28;3.58;;;11.00;99.90;;;;;;7352020;32;20222;-56
2023/08/31 03:40:55;;;;;;;6.32;3.45;;;11.10;99.90;;;;;;7347700;32;20099;-56
2023/08/31 03:44:57;;;;;;;7.68;3.60;;;11.00;99.90;;;;;;7342766;32;20200;-56
2023/08/31 03:48:59;;;;;;;7.47;3.62;;;11.10;99.90;;;;;;7349589;32;20235;-58
2023/08/31 03:53:01;;;;;;;5.80;3.25;;;11.00;99.90;;;;;;7348334;32;20107;-56
2023/08/31 03:57:03;;;;;;;5.65;3.47;;;11.00;99.90;;;;;;7349462;32;20501;-57
2023/08/31 04:01:05;;;;;;;4.43;3.60;;;11.00;99.90;;;;;;7347961;32;20092;-57
2023/08/31 04:05:08;;;;;;;6.70;3.65;;;11.10;99.90;;;;;;7352543;32;20092;-57
2023/08/31 04:09:10;;;;;;;9.13;4.20;;;11.10;99.90;;;;;;7355332;32;20112;-56
2023/08/31 04:13:12;;;;;;;7.12;3.83;;;11.10;99.90;;;;;;7347626;32;20159;-55
2023/08/31 04:17:14;;;;;;;6.62;3.90;;;11.20;99.90;;;;;;7344000;32;20186;-56
2023/08/31 04:21:15;;;;;;;7.53;4.25;;;11.20;99.90;;;;;;7349831;32;20115;-56
2023/08/31 04:25:17;;;;;;;5.87;3.60;;;11.30;99.90;;;;;;7349230;32;20848;-55
2023/08/31 04:29:19;;;;;;;6.00;3.75;;;11.30;99.90;;;;;;7355078;32;20475;-57
2023/08/31 04:33:21;;;;;;;5.80;4.18;;;11.30;99.90;;;;;;7351489;32;20328;-56
2023/08/31 04:37:23;;;;;;;7.25;4.35;;;11.20;99.90;;;;;;7352410;32;20179;-56
2023/08/31 04:41:24;;;;;;;7.53;4.25;;;11.20;99.90;;;;;;7349526;32;20113;-57
2023/08/31 04:45:26;;;;;;;9.30;4.43;;;11.20;99.90;;;;;;7349473;32;20099;-57
2023/08/31 04:49:28;;;;;;;7.25;4.47;;;11.20;99.90;;;;;;7343285;32;20565;-58
2023/08/31 04:53:30;;;;;;;6.35;4.53;;;11.30;99.90;;;;;;7341492;32;20226;-57
2023/08/31 04:57:32;;;;;;;7.20;4.22;;;11.30;99.90;;;;;;7353805;32;20449;-57
2023/08/31 05:01:33;;;;;;;6.53;4.60;;;11.30;99.90;;;;;;7332914;32;20243;-58
2023/08/31 05:05:35;;;;;;;8.02;4.80;;;11.40;99.90;;;;;;7340635;32;20740;-57
2023/08/31 05:09:37;;;;;;;8.95;4.78;;;11.40;99.90;;;;;;7348795;32;20549;-57
2023/08/31 05:13:41;;;;;;;7.12;4.80;;;11.40;99.90;;;;;;7350041;32;20131;-56
2023/08/31 05:17:43;;;;;;;8.27;5.75;;;11.50;99.90;;;;;;7350420;32;20179;-57
2023/08/31 05:21:45;;;;;;;7.87;5.53;;;11.50;99.90;;;;;;7335673;32;20216;-57
2023/08/31 05:25:47;;;;;;;8.70;5.43;;;11.60;99.90;;;;;;7341427;32;20133;-58
2023/08/31 05:29:49;;;;;;;7.47;5.40;;;11.60;99.90;;;;;;7341886;32;20519;-57
2023/08/31 05:33:51;;;;;;;10.48;5.75;;;11.70;99.90;;;;;;7339138;32;20142;-58
2023/08/31 05:37:53;;;;;;;8.98;5.87;;;11.70;99.90;;;;;;7334925;32;20182;-57
2023/08/31 05:41:54;;;;;;;8.43;5.85;;;11.70;99.90;;;;;;7345550;32;20304;-57
2023/08/31 05:45:56;;;;;;;11.70;5.68;;;11.70;99.90;;;;;;7338177;32;20176;-56
2023/08/31 05:49:58;;;;;;;7.65;5.82;;;11.80;99.90;;;;;;7341032;32;20820;-57
2023/08/31 05:54:00;;;;;;;8.38;6.35;;;11.80;99.90;;;;;;7346351;32;20161;-57
2023/08/31 05:58:02;;;;;;;10.13;6.45;;;11.80;99.90;;;;;;7339201;32;20156;-57
2023/08/31 06:02:05;;;;;;;11.20;5.80;;;11.80;99.90;;;;;;7345265;32;20226;-57
2023/08/31 06:06:07;;;;;;;9.48;6.32;;;11.80;99.90;;;;;;7335354;32;20480;-58
2023/08/31 06:10:09;;;;;;;10.93;5.78;;;11.80;99.90;;;;;;7340466;32;20112;-58
2023/08/31 06:14:11;;;;;;;9.40;6.43;;;11.80;99.90;;;;;;7338380;32;20126;-58
2023/08/31 06:18:13;;;;;;;13.32;5.97;;;11.80;99.90;;;;;;7351347;32;20149;-58
2023/08/31 06:22:15;;;;;;;14.30;6.37;;;11.80;99.90;;;;;;7352842;32;20202;-57
2023/08/31 06:26:16;;;;;;;10.45;6.15;;;11.90;99.90;;;;;;7348830;32;20498;-58
2023/08/31 06:30:18;;;;;;;9.52;6.20;;;11.80;99.90;;;;;;7344963;32;20119;-59
2023/08/31 06:34:20;;;;;;;7.78;5.40;;;11.90;99.90;;;;;;7349343;32;20099;-58
2023/08/31 06:38:22;;;;;;;8.77;5.47;;;12.00;99.90;;;;;;7343252;32;20508;-57
2023/08/31 06:42:24;;;;;;;8.48;5.75;;;12.10;99.90;;;;;;7352046;32;20537;-57
2023/08/31 06:46:25;;;;;;;12.05;5.35;;;12.10;99.90;;;;;;7350582;32;20700;-57
2023/08/31 06:50:27;;;;;;;8.48;5.80;;;12.20;99.90;;;;;;7329786;32;20242;-58
2023/08/31 06:54:29;;;;;;;10.93;5.87;;;12.20;99.90;;;;;;7348783;32;20174;-56
2023/08/31 06:58:31;;;;;;;10.75;4.95;;;12.30;99.90;;;;;;7331057;32;20234;-56
2023/08/31 07:02:34;;;;;;;7.72;5.05;;;12.30;99.90;;;;;;7331360;32;20191;-56
2023/08/31 07:06:36;;;;;;;10.55;5.55;;;12.40;99.90;;;;;;7338072;32;20206;-57
2023/08/31 07:10:38;;;;;;;7.65;4.50;;;12.50;99.90;;;;;;7330782;32;20139;-57
2023/08/31 07:14:40;;;;;;;7.15;4.97;;;12.60;99.90;;;;;;7335003;32;20080;-57
2023/08/31 07:18:42;;;;;;;5.85;4.28;;;12.70;99.90;;;;;;7342672;32;20099;-57
2023/08/31 07:22:43;;;;;;;6.70;4.72;;;12.70;99.90;;;;;;7352114;32;20194;-56
2023/08/31 07:26:45;;;;;;;6.97;4.28;;;12.80;99.90;;;;;;7342942;32;20189;-57
2023/08/31 07:30:47;;;;;;;8.05;4.03;;;12.80;99.90;;;;;;7339251;32;20393;-57
2023/08/31 07:34:48;;;;;;;5.90;4.00;;;12.90;99.90;;;;;;7330324;32;20580;-57
2023/08/31 07:38:50;;;;;;;6.07;3.70;;;13.10;99.90;;;;;;7338377;32;20472;-57
2023/08/31 07:42:52;;;;;;;4.95;3.47;;;13.30;99.90;;;;;;7340076;32;20201;-57
2023/08/31 07:46:54;;;;;;;7.00;3.20;;;13.30;99.90;;;;;;7337647;32;20293;-58
2023/08/31 07:50:56;;;;;;;4.40;3.00;;;13.40;99.90;;;;;;7337474;32;20326;-57
2023/08/31 07:54:58;;;;;;;5.22;3.15;;;13.50;99.90;;;;;;7340055;32;20186;-58
2023/08/31 07:59:00;;;;;;;5.95;3.00;;;13.60;99.90;;;;;;7338380;32;20205;-57
2023/08/31 08:03:01;;;;;;;5.87;2.97;;;13.70;99.90;;;;;;7332595;32;20183;-56
2023/08/31 08:07:04;;;;;;;5.55;3.08;;;13.80;99.90;;;;;;7339749;32;20100;-57
2023/08/31 08:11:05;;;;;;;6.68;3.20;;;13.90;99.90;;;;;;7337161;32;20209;-57
2023/08/31 08:15:10;;;;;;;5.95;3.22;;;14.10;99.90;;;;;;7336324;32;20931;-57
2023/08/31 08:19:12;;;;;;;5.65;3.05;;;14.10;99.90;;;;;;7334941;32;20216;-57
2023/08/31 08:23:13;;;;;;;5.00;3.37;;;14.20;99.90;;;;;;7322923;32;20183;-57
2023/08/31 08:27:17;;;;;;;6.32;2.37;;;14.40;99.90;;;;;;7329723;32;21533;-58
2023/08/31 08:31:19;;;;;;;6.65;3.42;;;14.50;99.90;;;;;;7341263;32;20216;-57
2023/08/31 08:35:23;;;;;;;7.93;3.12;;;14.70;99.90;;;;;;7329813;32;20175;-57
2023/08/31 08:39:25;;;;;;;5.87;2.50;;;14.90;99.90;;;;;;7349800;32;20189;-57
2023/08/31 08:43:27;;;;;;;4.18;2.60;;;15.10;99.90;;;;;;7341660;32;20170;-57
2023/08/31 08:47:31;;;;;;;6.60;2.53;;;15.30;99.90;;;;;;7339666;32;20107;-57
2023/08/31 08:51:33;;;;;;;5.85;2.22;;;15.60;99.90;;;;;;7343086;32;20209;-57
2023/08/31 08:55:35;;;;;;;4.75;2.35;;;16.00;99.90;;;;;;7337468;32;20256;-56
2023/08/31 08:59:37;;;;;;;5.97;1.85;;;16.80;99.90;;;;;;7334281;32;20205;-57
2023/08/31 09:03:39;;;;;;;5.18;1.85;;;17.60;99.90;;;;;;7339003;32;21154;-57
2023/08/31 09:08:00;;;;;;;4.87;2.05;;;17.70;99.90;;;;;;7340870;32;20187;-57
2023/08/31 09:12:08;;;;;;;4.80;1.87;;;17.40;99.90;;;;;;7334908;32;20210;-58
2023/08/31 09:16:23;;;;;;;2.20;1.50;;;17.10;99.90;;;;;;7289088;32;20221;-58
2023/08/31 09:20:25;;;;;;;3.92;1.90;;;17.30;99.90;;;;;;7333878;32;20245;-58
2023/08/31 09:24:27;;;;;;;6.97;1.90;;;17.30;99.90;;;;;;7338531;32;20254;-58
2023/08/31 09:28:29;;;;;;;5.85;1.80;;;17.50;99.90;;;;;;7330868;32;20246;-58
2023/08/31 09:32:31;;;;;;;3.50;1.52;;;17.50;99.90;;;;;;7340391;32;20721;-57
2023/08/31 09:36:33;;;;;;;4.43;1.30;;;17.30;99.90;;;;;;7339730;32;20309;-58
2023/08/31 09:40:36;;;;;;;6.43;1.70;;;17.60;99.90;;;;;;7331298;32;20316;-58
2023/08/31 09:44:43;;;;;;;3.03;1.60;;;18.30;99.90;;;;;;7343119;32;20585;-57
2023/08/31 09:48:47;;;;;;;3.70;1.45;;;18.60;99.90;;;;;;7336863;32;20256;-58
2023/08/31 09:52:51;;;;;;;3.45;1.80;;;18.80;99.90;;;;;;7299288;32;20302;-58
2023/08/31 09:56:56;;;;;;;6.20;1.27;;;18.70;99.90;;;;;;7335501;32;20186;-59
2023/08/31 10:00:59;;;;;;;3.60;1.40;;;19.80;99.90;;;;;;7329361;32;20302;-59
2023/08/31 10:05:01;;;;;;;5.35;1.50;;;20.50;99.90;;;;;;7341669;32;21331;-58
2023/08/31 10:09:05;;;;;;;2.45;1.20;;;21.40;99.90;;;;;;7337618;32;20246;-57
2023/08/31 10:13:08;;;;;;;7.10;1.42;;;21.10;99.90;;;;;;7348784;32;20179;-58
2023/08/31 10:17:10;;;;;;;4.47;1.40;;;21.00;99.90;;;;;;7343482;32;20182;-58
2023/08/31 10:21:16;;;;;;;4.82;1.30;;;19.90;99.90;;;;;;7341203;32;20234;-57
2023/08/31 10:25:18;;;;;;;7.03;1.85;;;19.10;99.90;;;;;;7337874;32;20953;-58
2023/08/31 10:29:30;;;;;;;5.25;1.60;;;18.50;99.90;;;;;;7335799;32;20205;-58
2023/08/31 10:33:45;;;;;;;4.03;1.42;;;18.10;99.90;;;;;;7336470;32;20639;-58
2023/08/31 10:37:47;;;;;;;7.90;1.83;;;17.80;99.90;;;;;;7342850;32;21663;-58
2023/08/31 10:42:00;;;;;;;4.47;1.50;;;18.70;99.90;;;;;;7341605;32;20263;-58
2023/08/31 10:46:03;;;;;;;4.68;1.58;;;19.40;99.90;;;;;;7334828;32;20498;-58
2023/08/31 10:50:21;;;;;;;4.45;1.52;;;19.00;99.90;;;;;;7280026;32;20216;-58
2023/08/31 10:54:37;;;;;;;3.95;1.60;;;18.30;99.90;;;;;;7281373;32;20190;-57
2023/08/31 10:58:39;;;;;;;6.30;1.92;;;17.80;99.90;;;;;;7319817;32;20333;-58
2023/08/31 11:02:41;;;;;;;7.87;1.98;;;17.50;99.90;;;;;;7330662;32;20288;-58
2023/08/31 11:06:42;;;;;;;6.05;1.50;;;17.90;99.90;;;;;;7336498;32;20599;-58
2023/08/31 11:10:46;;;;;;;6.70;1.73;;;18.60;99.90;;;;;;7334732;32;20261;-57
2023/08/31 11:14:48;;;;;;;4.37;1.12;;;18.70;99.90;;;;;;7340819;32;20327;-59
2023/08/31 11:18:50;;;;;;;3.22;1.25;;;18.50;99.90;;;;;;7340339;32;21711;-57
2023/08/31 11:22:53;;;;;;;5.78;1.20;;;19.00;99.90;;;;;;7308391;32;20220;-57
2023/08/31 11:26:55;;;;;;;5.45;1.37;;;19.50;99.90;;;;;;7341544;32;20241;-57
2023/08/31 11:30:57;;;;;;;5.87;1.60;;;19.70;99.90;;;;;;7337106;32;20179;-57
2023/08/31 11:35:01;;;;;;;5.30;1.60;;;20.00;99.90;;;;;;7345146;32;20104;-57
2023/08/31 11:39:03;;;;;;;3.97;1.15;;;20.50;99.90;;;;;;7346345;32;20098;-58
2023/08/31 11:43:06;;;;;;;6.72;1.45;;;20.60;99.90;;;;;;7342143;32;20115;-57
2023/08/31 11:47:08;;;;;;;4.50;1.40;;;20.70;99.90;;;;;;7345192;32;20532;-57
2023/08/31 11:51:11;;;;;;;3.67;1.35;;;20.50;99.90;;;;;;7342311;32;20627;-57
2023/08/31 11:55:18;;;;;;;7.15;1.50;;;19.90;99.90;;;;;;7256149;32;20123;-56
2023/08/31 11:59:21;;;;;;;;;;;19.10;99.90;;;;;;7350187;32;20205;-57
2023/08/31 12:03:23;;;;;;;6.10;2.08;;;18.00;99.90;;;;;;7344065;32;20010;-56
2023/08/31 12:07:45;;;;;;;3.90;1.48;;;17.40;99.90;;;;;;7345930;32;20134;-56
2023/08/31 12:11:53;;;;;;;3.55;1.23;;;16.90;99.90;;;;;;7351460;32;20164;-57
2023/08/31 12:15:55;;;;;;;2.97;1.02;;;16.60;99.90;;;;;;7340992;32;20099;-56
2023/08/31 12:20:08;;;;;;;3.45;1.20;;;16.50;99.90;;;;;;7341519;32;20916;-56
2023/08/31 12:24:10;;;;;;;5.12;1.52;;;16.50;99.90;;;;;;7347345;32;20528;-57
2023/08/31 12:28:12;;;;;;;3.03;1.55;;;16.70;99.90;;;;;;7345357;32;20561;-57
2023/08/31 12:32:14;;;;;;;3.10;1.50;;;16.90;99.90;;;;;;7344132;32;20103;-58
2023/08/31 12:36:15;;;;;;;2.72;1.60;;;17.20;99.90;;;;;;7343107;32;20178;-57
2023/08/31 12:40:19;;;;;;;3.30;1.60;;;17.50;99.90;;;;;;7346259;32;20112;-57
2023/08/31 12:44:21;;;;;;;8.25;2.28;;;17.80;99.90;;;;;;7344655;32;20153;-57
2023/08/31 12:48:22;;;;;;;6.50;2.08;;;18.00;99.90;;;;;;7323595;32;20261;-57
2023/08/31 12:52:24;;;;;;;4.22;2.10;;;18.60;99.90;;;;;;7341270;32;20241;-57
2023/08/31 12:56:26;;;;;;;5.78;2.10;;;18.90;99.90;;;;;;7347510;32;20921;-57
2023/08/31 13:00:28;;;;;;;4.50;1.70;;;19.40;99.90;;;;;;7347262;32;21418;-57
2023/08/31 13:04:29;;;;;;;4.90;1.52;;;19.90;99.90;;;;;;7355535;32;20111;-56
2023/08/31 13:08:31;;;;;;;5.32;1.70;;;20.40;99.90;;;;;;7347454;32;20480;-56
2023/08/31 13:12:33;;;;;;;4.15;1.30;;;20.30;99.90;;;;;;7343797;32;20840;-56
2023/08/31 13:16:36;;;;;;;5.55;1.30;;;20.50;99.90;;;;;;7346149;32;20270;-57
2023/08/31 13:20:39;;;;;;;6.40;1.60;;;20.60;99.90;;;;;;7348145;32;20265;-56
2023/08/31 13:24:41;;;;;;;4.28;1.50;;;20.40;99.90;;;;;;7286647;32;20279;-57
2023/08/31 13:28:43;;;;;;;3.83;1.33;;;20.20;99.90;;;;;;7343789;32;20096;-58
2023/08/31 13:32:45;;;;;;;4.20;1.58;;;20.40;99.90;;;;;;7345553;32;20170;-56
2023/08/31 13:36:47;;;;;;;4.15;1.20;;;20.50;99.90;;;;;;7346071;32;20148;-57
2023/08/31 13:40:55;;;;;;;5.85;1.25;;;20.80;99.90;;;;;;7310637;32;20265;-57
2023/08/31 13:44:57;;;;;;;2.45;0.90;;;21.00;99.90;;;;;;7340416;32;20130;-58
2023/08/31 13:48:58;;;;;;;6.45;1.30;;;21.20;99.90;;;;;;7349703;32;20192;-57
2023/08/31 13:53:00;;;;;;;4.05;1.12;;;21.30;99.90;;;;;;7342173;32;20222;-56
2023/08/31 13:57:02;;;;;;;4.72;1.20;;;21.00;99.90;;;;;;7314778;32;20211;-58
2023/08/31 14:01:05;;;;;;;3.83;1.17;;;21.20;99.90;;;;;;7313362;32;20190;-58
2023/08/31 14:05:08;;;;;;;3.90;1.27;;;21.40;99.90;;;;;;7331344;32;20316;-57
2023/08/31 14:09:10;;;;;;;2.62;1.17;;;21.70;99.90;;;;;;7329782;32;20114;-58
2023/08/31 14:13:12;;;;;;;4.15;1.10;;;21.90;99.90;;;;;;7336520;32;20194;-57
2023/08/31 14:17:14;;;;;;;3.35;1.20;;;21.80;99.90;;;;;;7308498;32;20616;-59
2023/08/31 14:21:16;;;;;;;2.30;1.02;;;22.10;99.90;;;;;;7296271;32;20843;-57
2023/08/31 14:25:18;;;;;;;2.78;0.95;;;21.90;99.90;;;;;;7331950;32;20625;-58
2023/08/31 14:29:20;;;;;;;2.47;0.80;;;21.70;99.90;;;;;;7333680;32;20420;-58
2023/08/31 14:33:21;;;;;;;3.90;1.42;;;21.30;99.90;;;;;;7335297;32;20798;-58
2023/08/31 14:37:23;;;;;;;3.20;1.10;;;20.90;99.90;;;;;;7341388;32;20335;-58
2023/08/31 14:41:25;;;;;;;3.12;1.12;;;20.60;99.90;;;;;;7341998;32;20230;-58
2023/08/31 14:45:27;;;;;;;2.12;0.90;;;20.40;99.90;;;;;;7339932;32;20324;-57
2023/08/31 14:49:29;;;;;;;5.72;1.70;;;19.90;99.90;;;;;;7340194;32;20258;-57
2023/08/31 14:53:31;;;;;;;2.95;1.60;;;19.40;99.90;;;;;;7333374;32;20175;-58
2023/08/31 14:57:33;;;;;;;5.95;2.37;;;18.80;99.90;;;;;;7337024;32;20202;-57
2023/08/31 15:01:34;;;;;;;4.90;2.10;;;18.20;99.90;;;;;;7341108;32;20117;-56
2023/08/31 15:05:36;;;;;;;4.35;1.90;;;17.90;99.90;;;;;;7344994;32;20130;-57
2023/08/31 15:09:38;;;;;;;5.62;2.08;;;17.40;99.90;;;;;;7353790;32;21049;-58
2023/08/31 15:13:40;;;;;;;3.20;1.92;;;17.20;99.90;;;;;;7347773;32;21126;-57
2023/08/31 15:17:42;;;;;;;4.30;2.00;;;17.20;99.90;;;;;;7351580;32;20227;-58
2023/08/31 15:21:44;;;;;;;4.47;1.98;;;16.90;99.90;;;;;;7343671;32;20844;-57
2023/08/31 15:25:46;;;;;;;5.93;2.50;;;16.80;99.90;;;;;;7348788;32;20265;-57
2023/08/31 15:29:48;;;;;;;5.37;1.80;;;16.80;99.90;;;;;;7352874;32;20259;-57
2023/08/31 15:33:50;;;;;;;4.07;1.85;;;16.60;99.90;;;;;;7348755;32;20242;-58
2023/08/31 15:37:52;;;;;;;3.65;1.75;;;16.70;99.90;;;;;;7338609;32;20302;-56
2023/08/31 15:41:54;;;;;;;6.00;2.15;;;16.60;99.90;;;;;;7314446;32;20242;-57
2023/08/31 15:45:57;;;;;;;5.97;2.10;;;16.70;99.90;;;;;;7332558;32;20197;-57
2023/08/31 15:49:59;;;;;;;5.50;2.30;;;16.70;99.90;;;;;;7290242;32;20118;-56
2023/08/31 15:54:03;;;;;;;4.60;1.58;;;16.70;99.90;;;;;;7348903;32;20096;-57
2023/08/31 15:58:07;;;;;;;4.68;1.85;;;16.60;99.90;;;;;;7349547;32;20127;-57
2023/08/31 16:02:09;;;;;;;2.83;1.80;;;16.70;99.90;;;;;;7344145;32;20260;-57
2023/08/31 16:06:13;;;;;;;4.62;1.75;;;16.90;99.90;;;;;;7347701;32;20115;-57
2023/08/31 16:10:14;;;;;;;6.07;2.50;;;16.80;99.90;;;;;;7356553;32;20438;-56
2023/08/31 16:14:16;;;;;;;5.07;2.53;;;16.90;99.90;;;;;;7349842;32;20426;-57
2023/08/31 16:18:18;;;;;;;5.97;2.67;;;16.80;99.90;;;;;;7336595;32;20167;-57
2023/08/31 16:22:20;;;;;;;12.18;3.67;;;16.70;99.90;;;;;;7263016;32;20239;-57
2023/08/31 16:26:21;;;;;;;9.30;3.37;;;16.50;99.90;;;;;;7346291;32;20715;-57
2023/08/31 16:30:23;;;;;;;6.93;3.40;;;16.40;99.90;;;;;;7343449;32;20808;-57
2023/08/31 16:34:25;;;;;;;11.38;3.83;;;16.50;99.90;;;;;;7345285;32;20266;-59
2023/08/31 16:38:27;;;;;;;8.68;3.53;;;16.50;99.90;;;;;;7341191;32;20103;-57
2023/08/31 16:42:28;;;;;;;8.75;3.62;;;16.40;99.90;;;;;;7350837;32;20289;-57
2023/08/31 16:46:30;;;;;;;8.45;3.50;;;16.20;99.90;;;;;;7352432;32;20183;-58
2023/08/31 16:50:34;;;;;;;8.40;3.37;;;16.10;99.90;;;;;;7349004;32;20246;-58
2023/08/31 16:54:36;;;;;;;7.47;3.03;;;16.10;99.90;;;;;;7351308;32;20170;-58
2023/08/31 16:58:38;;;;;;;6.78;3.80;;;16.10;99.90;;;;;;7350235;32;20147;-57
2023/08/31 17:02:39;;;;;;;8.60;3.37;;;16.10;99.90;;;;;;7346670;32;20242;-58
2023/08/31 17:06:41;;;;;;;7.10;3.67;;;16.10;99.90;;;;;;7355129;32;20129;-58
2023/08/31 17:10:43;;;;;;;8.77;3.62;;;16.10;99.90;;;;;;7348101;32;20096;-58
2023/08/31 17:14:46;;;;;;;5.28;3.12;;;16.10;99.90;;;;;;7352758;32;20434;-56
2023/08/31 17:18:48;;;;;;;8.98;3.42;;;16.00;99.90;;;;;;7343555;32;20190;-57
2023/08/31 17:22:50;;;;;;;7.30;3.20;;;16.10;99.90;;;;;;7346846;32;20315;-57
2023/08/31 17:26:51;;;;;;;9.52;3.95;;;16.00;99.90;;;;;;7348154;32;20214;-57
2023/08/31 17:30:55;;;;;;;7.15;3.37;;;16.00;99.90;;;;;;7341955;32;20107;-57
2023/08/31 17:34:58;;;;;;;8.93;3.80;;;16.00;99.90;;;;;;7350812;32;20876;-58
2023/08/31 17:39:00;;;;;;;9.15;4.07;;;16.10;99.90;;;;;;7341425;32;20250;-58
2023/08/31 17:43:01;;;;;;;7.30;3.55;;;16.00;99.90;;;;;;7343598;32;21457;-60
2023/08/31 17:47:03;;;;;;;10.52;3.90;;;15.90;99.90;;;;;;7346223;32;20125;-60
2023/08/31 17:51:05;;;;;;;5.90;3.30;;;15.80;99.90;;;;;;7346323;32;20625;-58
2023/08/31 17:55:07;;;;;;;7.12;3.62;;;15.80;99.90;;;;;;7308893;32;20242;-60
2023/08/31 17:59:14;;;;;;;9.32;4.05;;;15.80;99.90;;;;;;7333990;32;20182;-57
2023/08/31 18:03:16;;;;;;;7.22;3.83;;;15.70;99.90;;;;;;7333853;32;20224;-59
2023/08/31 18:07:18;;;;;;;8.48;3.65;;;15.70;99.90;;;;;;7305280;32;20108;-58
2023/08/31 18:11:20;;;;;;;8.43;3.60;;;15.60;99.90;;;;;;7346096;32;20254;-57
2023/08/31 18:15:21;;;;;;;8.45;3.87;;;15.50;99.90;;;;;;7344948;32;20201;-56
2023/08/31 18:19:23;;;;;;;6.97;4.07;;;15.50;99.90;;;;;;7351966;32;20116;-58
2023/08/31 18:23:26;;;;;;;7.75;4.25;;;15.40;99.90;;;;;;7352246;32;20299;-57
2023/08/31 18:27:28;;;;;;;9.13;3.90;;;15.40;99.90;;;;;;7344796;32;20111;-57
2023/08/31 18:31:30;;;;;;;7.15;3.70;;;15.30;99.90;;;;;;7351621;32;20219;-57
2023/08/31 18:35:31;;;;;;;6.65;3.08;;;15.20;99.90;;;;;;7353341;32;20673;-56
2023/08/31 18:39:33;;;;;;;7.60;3.50;;;15.10;99.90;;;;;;7303582;32;20318;-55
2023/08/31 18:43:35;;;;;;;7.93;3.30;;;15.10;99.90;;;;;;7346779;32;20151;-56
2023/08/31 18:47:37;;;;;;;8.00;3.37;;;15.00;99.90;;;;;;7350476;32;20182;-56
2023/08/31 18:51:43;;;;;;;6.12;3.20;;;14.90;99.90;;;;;;7355224;32;20191;-55
2023/08/31 18:55:45;;;;;;;8.32;3.80;;;14.90;99.90;;;;;;7332063;32;20099;-56
2023/08/31 18:59:47;;;;;;;7.65;3.15;;;14.80;99.90;;;;;;7297305;32;20244;-56
2023/08/31 19:03:51;;;;;;;6.72;3.47;;;14.70;99.90;;;;;;7360939;32;20815;-57
2023/08/31 19:07:53;;;;;;;7.35;3.65;;;14.70;99.90;;;;;;7362943;32;20434;-57
2023/08/31 19:11:56;;;;;;;3.87;2.97;;;14.70;99.90;;;;;;7351470;32;20445;-56
2023/08/31 19:15:57;;;;;;;6.90;3.33;;;14.70;99.90;;;;;;7301247;32;20122;-57
2023/08/31 19:19:59;;;;;;;7.05;4.03;;;14.60;99.90;;;;;;7344339;32;21105;-58
2023/08/31 19:24:02;;;;;;;6.40;4.10;;;14.50;99.90;;;;;;7360187;32;20102;-58
2023/08/31 19:28:05;;;;;;;11.02;4.37;;;14.40;99.90;;;;;;7345785;32;20098;-56
2023/08/31 19:32:07;;;;;;;8.82;3.85;;;14.40;99.90;;;;;;7340359;32;21697;-57
2023/08/31 19:36:09;;;;;;;7.30;4.18;;;14.30;99.90;;;;;;7343682;32;20111;-58
2023/08/31 19:40:14;;;;;;;10.32;4.90;;;14.10;99.90;;;;;;7346099;32;20118;-58
2023/08/31 19:44:16;;;;;;;10.52;4.75;;;14.00;99.90;;;;;;7339805;32;20297;-58
2023/08/31 19:48:18;;;;;;;8.00;4.15;;;13.90;99.90;;;;;;7345334;32;20095;-58
2023/08/31 19:52:21;;;;;;;5.65;3.80;;;13.90;99.90;;;;;;7338562;32;20186;-59
2023/08/31 19:56:22;;;;;;;4.87;3.47;;;13.90;99.90;;;;;;7341746;32;20179;-57
2023/08/31 20:00:25;;;;;;;5.75;3.70;;;13.80;99.90;;;;;;7344675;32;20225;-56
2023/08/31 20:04:27;;;;;;;6.18;4.05;;;13.70;99.90;;;;;;7345674;32;20099;-57
2023/08/31 20:08:29;;;;;;;7.40;3.70;;;13.70;99.90;;;;;;7341676;32;20127;-58
2023/08/31 20:12:30;;;;;;;10.82;5.35;;;13.60;99.90;;;;;;7317055;32;20528;-57
2023/08/31 20:16:32;;;;;;;8.70;4.00;;;13.50;99.90;;;;;;7332637;32;20265;-58
2023/08/31 20:20:34;;;;;;;11.63;3.95;;;13.40;99.90;;;;;;7337986;32;20141;-58
2023/08/31 20:24:36;;;;;;;12.70;3.80;;;13.30;99.90;;;;;;7332999;32;20190;-57
2023/08/31 20:28:37;;;;;;;9.10;4.22;;;13.20;99.90;;;;;;7295278;32;21489;-57
2023/08/31 20:32:39;;;;;;;10.02;4.50;;;13.20;99.90;;;;;;7341173;32;20143;-58
2023/08/31 20:36:41;;;;;;;6.97;3.50;;;13.10;99.90;;;;;;7331911;32;20210;-57
2023/08/31 20:40:43;;;;;;;4.43;3.12;;;13.00;99.90;;;;;;7297593;32;20234;-57
2023/08/31 20:44:45;;;;;;;7.40;3.30;;;13.00;99.90;;;;;;7310391;32;20308;-57
2023/08/31 20:48:47;;;;;;;7.87;3.37;;;13.00;99.90;;;;;;7332152;32;20835;-57
2023/08/31 20:52:51;;;;;;;8.00;3.12;;;12.80;99.90;;;;;;7331083;32;20359;-58
2023/08/31 20:56:53;;;;;;;8.35;3.25;;;12.80;99.90;;;;;;7327329;32;20179;-56
2023/08/31 21:00:55;;;;;;;9.30;3.85;;;12.70;99.90;;;;;;7334779;32;20263;-57